createdAt,value
2022-09-18T00:01:36.669Z,2.40
2022-09-18T00:04:06.632Z,1.88
2022-09-18T00:06:38.289Z,2.13
2022-09-18T00:09:08.952Z,2.00
2022-09-18T00:11:39.378Z,2.50
2022-09-18T00:14:10.957Z,2.38
2022-09-18T00:16:40.124Z,2.30
2022-09-18T00:19:08.960Z,2.38
2022-09-18T00:21:41.666Z,2.13
2022-09-18T00:24:09.736Z,1.98
2022-09-18T00:26:38.391Z,2.00
2022-09-18T00:29:08.055Z,2.45
2022-09-18T00:31:36.943Z,2.80
2022-09-18T00:34:08.062Z,2.40
2022-09-18T00:36:36.861Z,2.65
2022-09-18T00:39:06.055Z,3.42
2022-09-18T00:41:36.416Z,2.70
2022-09-18T00:44:35.320Z,2.70
2022-09-18T00:47:15.394Z,2.50
2022-09-18T00:49:47.405Z,2.75
2022-09-18T00:52:16.759Z,3.15
2022-09-18T00:54:48.485Z,2.28
2022-09-18T00:57:22.485Z,2.70
2022-09-18T00:59:54.069Z,2.67
2022-09-18T01:02:22.816Z,2.88
2022-09-18T01:04:52.170Z,2.65
2022-09-18T01:07:32.754Z,2.28
2022-09-18T01:10:14.839Z,2.60
2022-09-18T01:12:53.511Z,2.33
2022-09-18T01:15:31.699Z,2.10
2022-09-18T01:18:10.807Z,2.25
2022-09-18T01:20:58.243Z,2.17
2022-09-18T01:24:14.446Z,2.20
2022-09-18T01:26:53.499Z,2.20
2022-09-18T01:29:32.232Z,2.70
2022-09-18T01:32:07.372Z,2.95
2022-09-18T01:34:41.365Z,2.60
2022-09-18T01:37:16.967Z,2.00
2022-09-18T01:39:52.470Z,2.15
2022-09-18T01:42:23.981Z,2.25
2022-09-18T01:44:56.504Z,2.22
2022-09-18T01:47:28.875Z,2.45
2022-09-18T01:50:00.237Z,2.22
2022-09-18T01:52:32.518Z,2.30
2022-09-18T01:55:03.197Z,2.55
2022-09-18T01:57:39.275Z,2.65
2022-09-18T02:00:12.164Z,2.83
2022-09-18T02:02:51.860Z,2.53
2022-09-18T02:05:28.474Z,2.30
2022-09-18T02:08:05.694Z,1.95
2022-09-18T02:10:38.416Z,2.40
2022-09-18T02:13:12.272Z,2.10
2022-09-18T02:15:45.267Z,2.10
2022-09-18T02:18:23.364Z,2.03
2022-09-18T02:20:53.031Z,2.28
2022-09-18T02:23:21.668Z,2.38
2022-09-18T02:25:53.610Z,2.58
2022-09-18T02:28:24.392Z,2.00
2022-09-18T02:30:54.287Z,2.08
2022-09-18T02:33:28.018Z,1.65
2022-09-18T02:36:25.044Z,2.08
2022-09-18T02:39:02.599Z,2.28
2022-09-18T02:41:39.464Z,2.97
2022-09-18T02:44:13.655Z,1.67
2022-09-18T02:49:24.706Z,1.67
2022-09-18T02:51:58.397Z,1.75
2022-09-18T02:54:32.208Z,2.20
2022-09-18T02:57:07.045Z,1.48
2022-09-18T02:59:40.206Z,2.15
2022-09-18T03:02:11.644Z,2.03
2022-09-18T03:04:41.203Z,2.00
2022-09-18T03:07:17.837Z,1.75
2022-09-18T03:09:48.191Z,1.92
2022-09-18T03:12:17.373Z,2.78
2022-09-18T03:14:51.309Z,2.00
2022-09-18T03:17:20.707Z,1.92
2022-09-18T03:19:49.405Z,1.77
2022-09-18T03:22:17.433Z,1.98
2022-09-18T03:24:45.591Z,2.22
2022-09-18T03:27:18.506Z,2.42
2022-09-18T03:29:46.959Z,2.40
2022-09-18T03:32:17.191Z,1.92
2022-09-18T03:34:49.292Z,1.98
2022-09-18T03:37:18.616Z,2.03
2022-09-18T03:39:48.354Z,2.33
2022-09-18T03:42:16.612Z,1.90
2022-09-18T03:44:44.838Z,2.13
2022-09-18T03:47:20.668Z,2.10
2022-09-18T03:49:50.657Z,1.95
2022-09-18T03:52:20.175Z,2.22
2022-09-18T03:54:55.105Z,2.40
2022-09-18T03:58:01.477Z,2.22
2022-09-18T04:01:05.147Z,2.20
2022-09-18T04:03:43.792Z,2.55
2022-09-18T04:06:42.877Z,2.45
2022-09-18T04:09:29.480Z,1.90
2022-09-18T04:11:57.643Z,2.20
2022-09-18T04:14:29.813Z,2.67
2022-09-18T04:16:58.527Z,2.55
2022-09-18T04:19:26.561Z,2.53
2022-09-18T04:21:56.290Z,2.53
2022-09-18T04:24:24.341Z,2.28
2022-09-18T04:26:52.663Z,2.15
2022-09-18T04:29:24.626Z,2.15
2022-09-18T04:31:52.995Z,2.00
2022-09-18T04:34:22.941Z,1.70
2022-09-18T04:36:51.483Z,2.50
2022-09-18T04:39:21.034Z,2.65
2022-09-18T04:41:50.534Z,2.60
2022-09-18T04:44:20.177Z,2.42
2022-09-18T04:46:48.505Z,3.40
2022-09-18T04:49:18.722Z,5.18
2022-09-18T04:51:47.063Z,3.42
2022-09-18T04:54:16.683Z,3.30
2022-09-18T04:56:47.014Z,3.17
2022-09-18T04:59:16.283Z,11.70
2022-09-18T05:01:47.368Z,9.18
2022-09-18T05:04:17.109Z,4.05
2022-09-18T05:06:54.411Z,2.58
2022-09-18T05:09:24.032Z,1.85
2022-09-18T05:11:54.514Z,2.13
2022-09-18T05:14:24.827Z,2.35
2022-09-18T05:16:57.448Z,1.92
2022-09-18T05:19:38.388Z,2.40
2022-09-18T05:22:12.819Z,2.38
2022-09-18T05:24:45.963Z,3.50
2022-09-18T05:27:16.432Z,5.55
2022-09-18T05:29:44.660Z,3.20
2022-09-18T05:32:20.316Z,3.20
2022-09-18T05:34:50.191Z,2.65
2022-09-18T05:37:19.233Z,2.50
2022-09-18T05:39:51.853Z,3.28
2022-09-18T05:42:21.210Z,2.58
2022-09-18T05:44:50.368Z,2.40
2022-09-18T05:47:22.862Z,2.65
2022-09-18T05:49:51.112Z,2.00
2022-09-18T05:52:19.189Z,2.33
2022-09-18T05:54:47.298Z,2.50
2022-09-18T05:57:15.232Z,2.45
2022-09-18T05:59:44.701Z,1.98
2022-09-18T06:02:12.953Z,2.10
2022-09-18T06:05:07.890Z,2.53
2022-09-18T06:07:35.861Z,3.25
2022-09-18T06:10:04.634Z,1.83
2022-09-18T06:12:33.264Z,2.42
2022-09-18T06:15:05.034Z,2.10
2022-09-18T06:17:35.269Z,1.73
2022-09-18T06:20:07.100Z,1.67
2022-09-18T06:22:35.513Z,1.77
2022-09-18T06:25:04.258Z,1.90
2022-09-18T06:27:35.240Z,2.08
2022-09-18T06:30:06.045Z,1.45
2022-09-18T06:32:36.151Z,1.60
2022-09-18T06:35:04.623Z,1.85
2022-09-18T06:37:33.028Z,1.73
2022-09-18T06:40:11.542Z,3.60
2022-09-18T06:45:59.202Z,1.98
2022-09-18T06:48:29.642Z,2.33
2022-09-18T06:51:00.486Z,2.83
2022-09-18T06:53:33.780Z,1.90
2022-09-18T06:56:04.618Z,1.85
2022-09-18T06:58:36.465Z,1.50
2022-09-18T07:01:06.947Z,1.25
2022-09-18T07:03:43.858Z,1.25
2022-09-18T07:06:20.976Z,1.05
2022-09-18T07:08:51.014Z,1.10
2022-09-18T07:11:36.316Z,1.73
2022-09-18T07:14:06.642Z,1.23
2022-09-18T07:16:36.459Z,14.30
2022-09-18T07:19:06.682Z,13.27
2022-09-18T07:21:37.599Z,6.50
2022-09-18T07:24:06.229Z,3.13
2022-09-18T07:26:34.277Z,2.40
2022-09-18T07:29:08.050Z,1.23
2022-09-18T07:31:39.476Z,1.20
2022-09-18T07:34:10.211Z,1.13
2022-09-18T07:36:38.265Z,1.80
2022-09-18T07:39:06.491Z,1.50
2022-09-18T07:41:50.974Z,1.02
2022-09-18T07:44:19.206Z,1.23
2022-09-18T07:46:50.963Z,1.30
2022-09-18T07:49:19.804Z,1.23
2022-09-18T07:51:47.783Z,1.15
2022-09-18T07:54:18.887Z,1.05
2022-09-18T07:57:01.704Z,1.02
2022-09-18T07:59:37.248Z,1.30
2022-09-18T08:02:07.427Z,1.10
2022-09-18T08:04:37.423Z,1.00
2022-09-18T08:07:11.220Z,1.33
2022-09-18T08:12:59.368Z,1.65
2022-09-18T08:15:46.508Z,2.60
2022-09-18T08:18:27.788Z,2.03
2022-09-18T08:21:01.098Z,1.33
2022-09-18T08:23:41.192Z,1.40
2022-09-18T08:26:09.497Z,1.10
2022-09-18T08:28:38.457Z,1.33
2022-09-18T08:31:07.530Z,1.88
2022-09-18T08:33:37.168Z,0.95
2022-09-18T08:36:05.493Z,1.23
2022-09-18T08:38:43.428Z,1.23
2022-09-18T08:42:01.106Z,2.33
2022-09-18T08:44:42.556Z,4.18
2022-09-18T08:47:15.990Z,2.25
2022-09-18T08:49:53.412Z,1.90
2022-09-18T08:52:24.473Z,1.02
2022-09-18T08:55:04.842Z,1.20
2022-09-18T08:57:55.337Z,1.02
2022-09-18T09:00:36.607Z,1.17
2022-09-18T09:03:27.190Z,2.28
2022-09-18T09:05:59.520Z,1.65
2022-09-18T09:08:59.783Z,1.05
2022-09-18T09:11:40.247Z,0.93
2022-09-18T09:14:45.918Z,1.40
2022-09-18T09:17:18.637Z,1.10
2022-09-18T09:19:53.773Z,0.97
2022-09-18T09:22:33.498Z,0.98
2022-09-18T09:25:12.160Z,1.00
2022-09-18T09:28:16.327Z,1.00
2022-09-18T09:31:09.478Z,1.00
2022-09-18T09:34:00.900Z,1.15
2022-09-18T09:36:52.706Z,1.10
2022-09-18T09:39:28.391Z,1.10
2022-09-18T09:42:03.342Z,1.23
2022-09-18T09:44:38.349Z,1.10
2022-09-18T09:47:22.374Z,1.00
2022-09-18T09:50:00.639Z,1.00
2022-09-18T09:52:31.910Z,0.95
2022-09-18T09:55:22.019Z,1.30
2022-09-18T09:58:02.144Z,1.00
2022-09-18T10:00:35.446Z,1.08
2022-09-18T10:03:30.270Z,1.10
2022-09-18T10:06:10.116Z,1.50
2022-09-18T10:08:46.609Z,1.30
2022-09-18T10:11:18.374Z,1.33
2022-09-18T10:13:56.496Z,1.40
2022-09-18T10:19:19.663Z,1.00
2022-09-18T10:21:50.420Z,1.02
2022-09-18T10:24:27.197Z,1.88
2022-09-18T10:27:03.527Z,1.10
2022-09-18T10:29:35.747Z,0.80
2022-09-18T10:32:06.910Z,1.20
2022-09-18T10:37:39.833Z,1.33
2022-09-18T10:40:31.586Z,1.23
2022-09-18T10:43:03.475Z,1.10
2022-09-18T10:45:36.284Z,1.05
2022-09-18T10:48:28.388Z,1.13
2022-09-18T10:50:59.587Z,1.42
2022-09-18T10:54:05.515Z,1.25
2022-09-18T10:56:53.718Z,1.50
2022-09-18T10:59:36.362Z,4.10
2022-09-18T11:02:07.430Z,4.10
2022-09-18T11:04:37.641Z,2.63
2022-09-18T11:07:07.937Z,4.55
2022-09-18T11:09:40.123Z,10.60
2022-09-18T11:12:18.620Z,2.22
2022-09-18T11:14:51.506Z,1.60
2022-09-18T11:17:26.358Z,1.88
2022-09-18T11:19:56.827Z,2.22
2022-09-18T11:22:48.017Z,1.80
2022-09-18T11:25:25.057Z,2.00
2022-09-18T11:27:59.172Z,1.58
2022-09-18T11:30:35.672Z,1.52
2022-09-18T11:33:16.108Z,1.42
2022-09-18T11:35:47.185Z,0.88
2022-09-18T11:38:20.025Z,0.80
2022-09-18T11:40:52.519Z,1.05
2022-09-18T11:43:27.288Z,1.20
2022-09-18T11:46:04.338Z,1.13
2022-09-18T11:48:37.629Z,1.05
2022-09-18T11:51:15.205Z,1.42
2022-09-18T11:53:45.815Z,2.40
2022-09-18T11:56:19.214Z,1.70
2022-09-18T11:58:53.400Z,1.13
2022-09-18T12:01:34.007Z,1.00
2022-09-18T12:04:10.773Z,1.92
2022-09-18T12:06:48.448Z,2.80
2022-09-18T12:09:19.742Z,3.60
2022-09-18T12:11:55.627Z,5.22
2022-09-18T12:14:33.249Z,2.10
2022-09-18T12:17:22.545Z,1.67
2022-09-18T12:19:56.318Z,1.20
2022-09-18T12:22:31.106Z,1.33
2022-09-18T12:24:59.675Z,1.00
2022-09-18T12:27:54.149Z,0.80
2022-09-18T12:30:29.723Z,1.20
2022-09-18T12:33:09.450Z,1.05
2022-09-18T12:35:53.279Z,1.15
2022-09-18T12:38:34.030Z,1.05
2022-09-18T12:41:31.632Z,1.00
2022-09-18T12:44:44.387Z,0.90
2022-09-18T12:47:38.967Z,0.90
2022-09-18T12:50:42.727Z,0.82
2022-09-18T12:53:21.476Z,1.10
2022-09-18T12:56:19.712Z,1.50
2022-09-18T12:59:07.586Z,2.28
2022-09-18T13:01:41.312Z,0.95
2022-09-18T13:04:24.805Z,0.88
2022-09-18T13:07:04.483Z,1.00
2022-09-18T13:09:39.507Z,1.48
2022-09-18T13:12:16.059Z,1.20
2022-09-18T13:14:48.992Z,3.40
2022-09-18T13:17:27.805Z,1.08
2022-09-18T13:20:00.658Z,1.48
2022-09-18T13:22:37.737Z,0.98
2022-09-18T13:25:22.363Z,1.10
2022-09-18T13:27:51.512Z,1.02
2022-09-18T13:30:25.806Z,1.13
2022-09-18T13:32:54.755Z,1.40
2022-09-18T13:35:26.011Z,1.10
2022-09-18T13:38:23.470Z,1.70
2022-09-18T13:41:00.188Z,1.30
2022-09-18T13:43:39.655Z,1.40
2022-09-18T13:46:09.878Z,1.52
2022-09-18T13:48:46.054Z,1.27
2022-09-18T13:51:22.290Z,1.75
2022-09-18T13:54:17.671Z,1.50
2022-09-18T13:57:17.372Z,0.88
2022-09-18T13:59:52.935Z,0.90
2022-09-18T14:02:30.947Z,0.93
2022-09-18T14:05:21.901Z,2.15
2022-09-18T14:08:00.948Z,1.30
2022-09-18T14:10:34.903Z,1.17
2022-09-18T14:13:33.513Z,1.25
2022-09-18T14:16:07.062Z,0.93
2022-09-18T14:18:39.437Z,1.55
2022-09-18T14:21:20.648Z,2.33
2022-09-18T14:24:07.168Z,1.30
2022-09-18T14:26:58.906Z,1.23
2022-09-18T14:29:33.374Z,1.40
2022-09-18T14:32:03.329Z,1.33
2022-09-18T14:34:38.764Z,1.73
2022-09-18T14:37:28.340Z,1.50
2022-09-18T14:39:58.674Z,1.10
2022-09-18T14:42:34.290Z,1.30
2022-09-18T14:45:15.953Z,1.52
2022-09-18T14:47:46.445Z,1.23
2022-09-18T14:50:26.396Z,1.30
2022-09-18T14:52:55.321Z,1.67
2022-09-18T14:55:27.927Z,1.65
2022-09-18T14:58:00.620Z,1.15
2022-09-18T15:00:32.217Z,1.52
2022-09-18T15:03:02.309Z,2.90
2022-09-18T15:05:30.831Z,2.15
2022-09-18T15:08:03.832Z,3.22
2022-09-18T15:10:34.475Z,2.40
2022-09-18T15:13:07.462Z,1.65
2022-09-18T15:15:38.266Z,2.15
2022-09-18T15:18:19.295Z,1.92
2022-09-18T15:20:51.543Z,2.20
2022-09-18T15:23:21.955Z,2.35
2022-09-18T15:25:53.281Z,2.95
2022-09-18T15:28:25.583Z,2.60
2022-09-18T15:30:57.323Z,1.98
2022-09-18T15:33:27.415Z,2.35
2022-09-18T15:35:56.882Z,1.60
2022-09-18T15:38:31.854Z,1.27
2022-09-18T15:40:59.903Z,0.93
2022-09-18T15:43:43.591Z,0.80
2022-09-18T15:46:13.500Z,1.40
2022-09-18T15:48:45.186Z,1.30
2022-09-18T15:51:17.064Z,1.13
2022-09-18T15:54:05.691Z,1.80
2022-09-18T15:56:35.227Z,1.02
2022-09-18T15:59:06.545Z,1.35
2022-09-18T16:01:36.931Z,1.15
2022-09-18T16:04:23.820Z,1.52
2022-09-18T16:06:56.856Z,1.85
2022-09-18T16:09:37.635Z,1.98
2022-09-18T16:12:36.258Z,1.63
2022-09-18T16:15:21.319Z,2.25
2022-09-18T16:18:04.909Z,2.13
2022-09-18T16:20:38.870Z,3.00
2022-09-18T16:23:25.768Z,2.70
2022-09-18T16:26:10.496Z,2.75
2022-09-18T16:28:43.296Z,2.95
2022-09-18T16:31:16.041Z,1.80
2022-09-18T16:33:55.480Z,1.77
2022-09-18T16:36:30.335Z,1.33
2022-09-18T16:39:01.569Z,2.90
2022-09-18T16:41:30.590Z,1.88
2022-09-18T16:44:00.157Z,1.30
2022-09-18T16:46:33.966Z,1.17
2022-09-18T16:49:02.805Z,1.13
2022-09-18T16:51:30.922Z,1.30
2022-09-18T16:54:00.001Z,1.50
2022-09-18T16:56:38.762Z,0.68
2022-09-18T16:59:08.648Z,0.75
2022-09-18T17:02:02.494Z,0.93
2022-09-18T17:04:28.769Z,0.90
2022-09-18T17:06:56.796Z,0.88
2022-09-18T17:09:25.526Z,0.68
2022-09-18T17:11:54.810Z,1.20
2022-09-18T17:14:23.492Z,0.70
2022-09-18T17:16:53.752Z,0.82
2022-09-18T17:19:22.199Z,0.95
2022-09-18T17:21:50.381Z,1.20
2022-09-18T17:24:23.986Z,1.75
2022-09-18T17:26:52.692Z,1.20
2022-09-18T17:29:20.967Z,1.10
2022-09-18T17:31:49.288Z,1.33
2022-09-18T17:34:18.944Z,1.33
2022-09-18T17:36:47.195Z,1.20
2022-09-18T17:39:16.945Z,1.33
2022-09-18T17:41:45.900Z,4.63
2022-09-18T17:44:14.017Z,2.60
2022-09-18T17:46:42.384Z,1.05
2022-09-18T17:49:10.411Z,1.83
2022-09-18T17:51:39.805Z,1.27
2022-09-18T17:54:08.549Z,1.45
2022-09-18T17:56:36.890Z,1.15
2022-09-18T17:59:07.216Z,1.60
2022-09-18T18:01:38.204Z,1.17
2022-09-18T18:04:07.000Z,1.52
2022-09-18T18:06:35.187Z,2.72
2022-09-18T18:09:06.519Z,4.00
2022-09-18T18:11:34.916Z,3.30
2022-09-18T18:14:03.398Z,1.80
2022-09-18T18:16:32.532Z,1.60
2022-09-18T18:19:02.824Z,1.50
2022-09-18T18:21:33.700Z,1.80
2022-09-18T18:24:04.708Z,1.90
2022-09-18T18:26:33.065Z,23.55
2022-09-18T18:29:02.204Z,17.48
2022-09-18T18:31:31.565Z,8.95
2022-09-18T18:33:59.760Z,3.50
2022-09-18T18:36:29.590Z,2.58
2022-09-18T18:39:00.062Z,2.20
2022-09-18T18:41:32.235Z,1.83
2022-09-18T18:44:02.248Z,1.70
2022-09-18T18:46:35.896Z,1.70
2022-09-18T18:49:09.071Z,1.58
2022-09-18T18:51:45.951Z,1.90
2022-09-18T18:54:14.856Z,2.05
2022-09-18T18:56:44.608Z,1.27
2022-09-18T18:59:15.219Z,1.13
2022-09-18T19:01:43.872Z,1.48
2022-09-18T19:04:14.110Z,1.50
2022-09-18T19:06:44.580Z,1.40
2022-09-18T19:09:18.066Z,1.23
2022-09-18T19:11:50.960Z,1.50
2022-09-18T19:14:20.763Z,1.60
2022-09-18T19:16:50.228Z,1.75
2022-09-18T19:19:20.340Z,1.88
2022-09-18T19:21:48.976Z,2.45
2022-09-18T19:24:18.576Z,2.35
2022-09-18T19:26:48.083Z,2.40
2022-09-18T19:29:19.123Z,2.22
2022-09-18T19:31:48.338Z,2.45
2022-09-18T19:34:19.351Z,2.60
2022-09-18T19:36:49.050Z,2.00
2022-09-18T19:39:18.691Z,1.60
2022-09-18T19:41:52.264Z,1.88
2022-09-18T19:44:27.399Z,1.90
2022-09-18T19:46:58.537Z,1.90
2022-09-18T19:49:32.351Z,1.30
2022-09-18T19:52:02.089Z,1.80
2022-09-18T19:54:31.055Z,1.95
2022-09-18T19:56:59.362Z,1.70
2022-09-18T19:59:28.743Z,1.70
2022-09-18T20:01:57.049Z,1.52
2022-09-18T20:04:25.317Z,1.50
2022-09-18T20:06:53.374Z,1.95
2022-09-18T20:09:42.407Z,2.00
2022-09-18T20:12:10.878Z,1.90
2022-09-18T20:14:40.202Z,2.17
2022-09-18T20:17:09.511Z,1.60
2022-09-18T20:19:37.822Z,1.55
2022-09-18T20:22:06.365Z,1.88
2022-09-18T20:24:34.676Z,1.75
2022-09-18T20:27:02.864Z,1.65
2022-09-18T20:29:31.172Z,1.67
2022-09-18T20:32:00.945Z,2.45
2022-09-18T20:34:28.931Z,2.25
2022-09-18T20:36:57.850Z,2.40
2022-09-18T20:39:26.015Z,2.90
2022-09-18T20:41:55.340Z,2.60
2022-09-18T20:44:23.285Z,2.67
2022-09-18T20:46:56.547Z,2.53
2022-09-18T20:49:26.148Z,2.60
2022-09-18T20:51:54.700Z,2.17
2022-09-18T20:54:23.377Z,2.25
2022-09-18T20:56:51.364Z,2.40
2022-09-18T20:59:20.936Z,3.05
2022-09-18T21:01:49.182Z,2.35
2022-09-18T21:04:19.587Z,2.05
2022-09-18T21:06:56.295Z,2.17
2022-09-18T21:09:26.749Z,1.80
2022-09-18T21:11:56.616Z,2.00
2022-09-18T21:14:25.502Z,1.77
2022-09-18T21:16:55.704Z,2.25
2022-09-18T21:19:26.438Z,1.73
2022-09-18T21:21:58.894Z,1.85
2022-09-18T21:24:27.394Z,1.77
2022-09-18T21:26:55.331Z,2.10
2022-09-18T21:29:26.045Z,1.48
2022-09-18T21:31:56.716Z,1.33
2022-09-18T21:34:26.939Z,1.60
2022-09-18T21:36:57.765Z,1.55
2022-09-18T21:39:29.108Z,2.97
2022-09-18T21:41:57.889Z,1.73
2022-09-18T21:44:28.152Z,2.10
2022-09-18T21:46:58.859Z,1.90
2022-09-18T21:49:27.718Z,2.05
2022-09-18T21:51:56.496Z,1.70
2022-09-18T21:54:27.315Z,2.08
2022-09-18T21:56:56.445Z,1.85
2022-09-18T21:59:27.724Z,1.67
2022-09-18T22:01:55.959Z,1.67
2022-09-18T22:04:26.945Z,1.58
2022-09-18T22:06:56.929Z,1.50
2022-09-18T22:09:27.875Z,1.42
2022-09-18T22:11:56.977Z,1.50
2022-09-18T22:14:28.628Z,1.27
2022-09-18T22:16:56.947Z,1.38
2022-09-18T22:19:24.904Z,1.13
2022-09-18T22:21:53.367Z,1.05
2022-09-18T22:24:23.844Z,1.15
2022-09-18T22:26:56.030Z,1.00
2022-09-18T22:29:26.212Z,1.50
2022-09-18T22:31:54.733Z,1.35
2022-09-18T22:34:24.893Z,1.58
2022-09-18T22:36:53.125Z,1.92
2022-09-18T22:39:22.507Z,1.77
2022-09-18T22:41:51.879Z,1.63
2022-09-18T22:44:21.872Z,1.50
2022-09-18T22:46:52.658Z,1.50
2022-09-18T22:49:22.259Z,1.13
2022-09-18T22:51:50.788Z,1.25
2022-09-18T22:54:24.292Z,1.73
2022-09-18T22:56:53.186Z,1.55
2022-09-18T22:59:25.448Z,1.60
2022-09-18T23:01:56.403Z,1.45
2022-09-18T23:04:28.122Z,1.20
2022-09-18T23:06:57.086Z,2.00
2022-09-18T23:09:25.720Z,1.75
2022-09-18T23:11:54.334Z,1.33
2022-09-18T23:14:25.883Z,1.40
2022-09-18T23:16:54.548Z,1.95
2022-09-18T23:19:23.957Z,2.30
2022-09-18T23:21:52.031Z,3.20
2022-09-18T23:24:20.238Z,3.20
2022-09-18T23:26:50.165Z,3.10
2022-09-18T23:29:21.147Z,3.30
2022-09-18T23:31:53.022Z,4.10
2022-09-18T23:34:23.570Z,4.28
2022-09-18T23:36:54.140Z,3.90
2022-09-18T23:39:24.467Z,3.90
2022-09-18T23:41:53.402Z,3.45
2022-09-18T23:44:22.626Z,3.28
2022-09-18T23:46:52.646Z,3.40
2022-09-18T23:49:23.431Z,3.05
2022-09-18T23:51:53.972Z,3.25
2022-09-18T23:54:41.998Z,3.00
2022-09-18T23:57:09.996Z,2.70
2022-09-18T23:59:37.965Z,2.78
